sensor_id;sensor_type;location;lat;lon;timestamp;temperature;humidity
49385;DHT22;36795;45.028;38.968;2022-09-27T00:02:35;16.10;74.90
49385;DHT22;36795;45.028;38.968;2022-09-27T00:05:22;16.10;75.10
49385;DHT22;36795;45.028;38.968;2022-09-27T00:08:08;16.10;75.10
49385;DHT22;36795;45.028;38.968;2022-09-27T00:11:03;16.10;75.10
49385;DHT22;36795;45.028;38.968;2022-09-27T00:13:50;16.10;75.00
49385;DHT22;36795;45.028;38.968;2022-09-27T00:16:38;16.10;74.90
49385;DHT22;36795;45.028;38.968;2022-09-27T00:19:24;16.00;75.10
49385;DHT22;36795;45.028;38.968;2022-09-27T00:22:10;15.90;75.20
49385;DHT22;36795;45.028;38.968;2022-09-27T00:25:00;15.90;75.50
49385;DHT22;36795;45.028;38.968;2022-09-27T00:27:46;15.90;75.70
49385;DHT22;36795;45.028;38.968;2022-09-27T00:30:32;16.00;75.70
49385;DHT22;36795;45.028;38.968;2022-09-27T00:33:19;16.00;75.70
49385;DHT22;36795;45.028;38.968;2022-09-27T00:36:05;15.90;75.80
49385;DHT22;36795;45.028;38.968;2022-09-27T00:38:52;15.90;76.10
49385;DHT22;36795;45.028;38.968;2022-09-27T00:41:38;15.90;76.30
49385;DHT22;36795;45.028;38.968;2022-09-27T00:47:32;15.90;76.60
49385;DHT22;36795;45.028;38.968;2022-09-27T00:50:30;16.00;76.80
49385;DHT22;36795;45.028;38.968;2022-09-27T00:53:41;16.00;76.90
49385;DHT22;36795;45.028;38.968;2022-09-27T00:56:32;16.00;76.90
49385;DHT22;36795;45.028;38.968;2022-09-27T00:59:33;16.00;76.90
49385;DHT22;36795;45.028;38.968;2022-09-27T01:02:20;16.00;77.00
49385;DHT22;36795;45.028;38.968;2022-09-27T01:05:08;16.00;77.00
49385;DHT22;36795;45.028;38.968;2022-09-27T01:07:55;16.00;77.10
49385;DHT22;36795;45.028;38.968;2022-09-27T01:20:27;15.70;77.30
49385;DHT22;36795;45.028;38.968;2022-09-27T01:26:29;15.70;77.70
49385;DHT22;36795;45.028;38.968;2022-09-27T01:32:31;15.60;77.80
49385;DHT22;36795;45.028;38.968;2022-09-27T01:35:32;15.70;77.80
49385;DHT22;36795;45.028;38.968;2022-09-27T01:44:27;15.60;77.90
49385;DHT22;36795;45.028;38.968;2022-09-27T01:47:21;15.50;77.90
49385;DHT22;36795;45.028;38.968;2022-09-27T01:50:13;15.50;78.10
49385;DHT22;36795;45.028;38.968;2022-09-27T01:53:11;15.50;78.10
49385;DHT22;36795;45.028;38.968;2022-09-27T01:56:20;15.60;78.10
49385;DHT22;36795;45.028;38.968;2022-09-27T01:59:15;15.60;77.90
49385;DHT22;36795;45.028;38.968;2022-09-27T02:02:07;15.60;77.70
49385;DHT22;36795;45.028;38.968;2022-09-27T02:04:58;15.60;77.60
49385;DHT22;36795;45.028;38.968;2022-09-27T02:07:54;15.60;77.60
49385;DHT22;36795;45.028;38.968;2022-09-27T02:10:44;15.60;77.70
49385;DHT22;36795;45.028;38.968;2022-09-27T02:17:16;15.60;77.80
49385;DHT22;36795;45.028;38.968;2022-09-27T02:20:19;15.50;77.90
49385;DHT22;36795;45.028;38.968;2022-09-27T02:23:32;15.50;78.00
49385;DHT22;36795;45.028;38.968;2022-09-27T02:26:33;15.50;78.00
49385;DHT22;36795;45.028;38.968;2022-09-27T02:29:25;15.50;78.00
49385;DHT22;36795;45.028;38.968;2022-09-27T02:32:16;15.50;77.90
49385;DHT22;36795;45.028;38.968;2022-09-27T02:35:19;15.50;77.80
49385;DHT22;36795;45.028;38.968;2022-09-27T02:38:08;15.50;77.80
49385;DHT22;36795;45.028;38.968;2022-09-27T02:40:55;15.40;77.80
49385;DHT22;36795;45.028;38.968;2022-09-27T02:43:44;15.40;77.70
49385;DHT22;36795;45.028;38.968;2022-09-27T02:50:00;15.40;77.40
49385;DHT22;36795;45.028;38.968;2022-09-27T02:52:59;15.30;77.30
49385;DHT22;36795;45.028;38.968;2022-09-27T03:02:03;15.20;76.80
49385;DHT22;36795;45.028;38.968;2022-09-27T03:05:05;15.20;76.90
49385;DHT22;36795;45.028;38.968;2022-09-27T03:07:53;15.10;76.70
49385;DHT22;36795;45.028;38.968;2022-09-27T03:10:39;15.00;76.60
49385;DHT22;36795;45.028;38.968;2022-09-27T03:13:26;15.00;76.50
49385;DHT22;36795;45.028;38.968;2022-09-27T03:16:12;15.10;76.40
49385;DHT22;36795;45.028;38.968;2022-09-27T03:19:02;15.00;76.20
49385;DHT22;36795;45.028;38.968;2022-09-27T03:21:51;15.00;76.30
49385;DHT22;36795;45.028;38.968;2022-09-27T03:24:38;14.90;76.50
49385;DHT22;36795;45.028;38.968;2022-09-27T03:27:24;15.00;76.30
49385;DHT22;36795;45.028;38.968;2022-09-27T03:30:12;14.90;76.20
49385;DHT22;36795;45.028;38.968;2022-09-27T03:32:58;14.90;76.20
49385;DHT22;36795;45.028;38.968;2022-09-27T03:35:46;14.90;76.10
49385;DHT22;36795;45.028;38.968;2022-09-27T03:38:33;14.90;76.20
49385;DHT22;36795;45.028;38.968;2022-09-27T03:41:19;14.90;76.20
49385;DHT22;36795;45.028;38.968;2022-09-27T03:44:06;14.90;76.00
49385;DHT22;36795;45.028;38.968;2022-09-27T03:46:53;15.00;76.00
49385;DHT22;36795;45.028;38.968;2022-09-27T03:49:39;15.00;75.80
49385;DHT22;36795;45.028;38.968;2022-09-27T03:52:25;15.00;75.70
49385;DHT22;36795;45.028;38.968;2022-09-27T03:55:12;14.90;75.70
49385;DHT22;36795;45.028;38.968;2022-09-27T03:57:59;14.90;75.80
49385;DHT22;36795;45.028;38.968;2022-09-27T04:00:45;14.90;75.90
49385;DHT22;36795;45.028;38.968;2022-09-27T04:03:32;14.90;75.70
49385;DHT22;36795;45.028;38.968;2022-09-27T04:06:24;15.00;75.40
49385;DHT22;36795;45.028;38.968;2022-09-27T04:09:12;15.10;75.20
49385;DHT22;36795;45.028;38.968;2022-09-27T04:12:02;15.30;75.00
49385;DHT22;36795;45.028;38.968;2022-09-27T04:14:49;15.30;74.60
49385;DHT22;36795;45.028;38.968;2022-09-27T04:17:39;15.40;74.50
49385;DHT22;36795;45.028;38.968;2022-09-27T04:20:28;15.60;74.20
49385;DHT22;36795;45.028;38.968;2022-09-27T04:23:14;15.60;73.80
49385;DHT22;36795;45.028;38.968;2022-09-27T04:26:02;15.70;73.50
49385;DHT22;36795;45.028;38.968;2022-09-27T04:28:48;15.80;73.20
49385;DHT22;36795;45.028;38.968;2022-09-27T04:31:36;15.80;73.00
49385;DHT22;36795;45.028;38.968;2022-09-27T04:34:23;15.90;73.00
49385;DHT22;36795;45.028;38.968;2022-09-27T04:37:29;16.10;72.60
49385;DHT22;36795;45.028;38.968;2022-09-27T04:40:17;16.30;72.00
49385;DHT22;36795;45.028;38.968;2022-09-27T04:43:05;16.40;71.70
49385;DHT22;36795;45.028;38.968;2022-09-27T04:45:51;16.40;71.30
49385;DHT22;36795;45.028;38.968;2022-09-27T04:48:38;16.50;71.00
49385;DHT22;36795;45.028;38.968;2022-09-27T04:51:24;16.60;70.80
49385;DHT22;36795;45.028;38.968;2022-09-27T04:54:12;16.80;70.40
49385;DHT22;36795;45.028;38.968;2022-09-27T04:57:02;16.90;69.80
49385;DHT22;36795;45.028;38.968;2022-09-27T04:59:49;16.90;69.60
49385;DHT22;36795;45.028;38.968;2022-09-27T05:02:35;16.90;69.40
49385;DHT22;36795;45.028;38.968;2022-09-27T05:05:24;17.00;69.30
49385;DHT22;36795;45.028;38.968;2022-09-27T05:08:10;17.20;68.80
49385;DHT22;36795;45.028;38.968;2022-09-27T05:10:58;17.50;68.10
49385;DHT22;36795;45.028;38.968;2022-09-27T05:13:45;17.90;67.40
49385;DHT22;36795;45.028;38.968;2022-09-27T05:16:32;18.30;66.40
49385;DHT22;36795;45.028;38.968;2022-09-27T05:19:32;18.80;65.30
49385;DHT22;36795;45.028;38.968;2022-09-27T05:22:31;19.20;63.50
49385;DHT22;36795;45.028;38.968;2022-09-27T05:25:18;19.50;62.80
49385;DHT22;36795;45.028;38.968;2022-09-27T05:28:05;19.80;61.60
49385;DHT22;36795;45.028;38.968;2022-09-27T05:30:51;19.80;61.00
49385;DHT22;36795;45.028;38.968;2022-09-27T05:33:39;19.90;60.80
49385;DHT22;36795;45.028;38.968;2022-09-27T05:36:30;20.00;60.10
49385;DHT22;36795;45.028;38.968;2022-09-27T05:39:18;20.00;60.10
49385;DHT22;36795;45.028;38.968;2022-09-27T05:42:04;19.90;60.40
49385;DHT22;36795;45.028;38.968;2022-09-27T05:44:53;19.80;60.70
49385;DHT22;36795;45.028;38.968;2022-09-27T05:47:39;19.70;61.00
49385;DHT22;36795;45.028;38.968;2022-09-27T05:50:26;19.60;61.70
49385;DHT22;36795;45.028;38.968;2022-09-27T05:53:12;19.90;60.50
49385;DHT22;36795;45.028;38.968;2022-09-27T05:56:05;20.20;59.30
49385;DHT22;36795;45.028;38.968;2022-09-27T05:58:56;20.70;57.60
49385;DHT22;36795;45.028;38.968;2022-09-27T06:01:43;21.10;56.20
49385;DHT22;36795;45.028;38.968;2022-09-27T06:04:37;21.40;55.40
49385;DHT22;36795;45.028;38.968;2022-09-27T06:07:24;21.30;55.00
49385;DHT22;36795;45.028;38.968;2022-09-27T06:10:11;21.30;55.00
49385;DHT22;36795;45.028;38.968;2022-09-27T06:13:04;21.20;54.80
49385;DHT22;36795;45.028;38.968;2022-09-27T06:15:52;21.00;55.30
49385;DHT22;36795;45.028;38.968;2022-09-27T06:18:37;20.80;56.10
49385;DHT22;36795;45.028;38.968;2022-09-27T06:21:24;20.50;56.30
49385;DHT22;36795;45.028;38.968;2022-09-27T06:24:15;20.20;56.80
49385;DHT22;36795;45.028;38.968;2022-09-27T06:27:24;20.00;57.70
49385;DHT22;36795;45.028;38.968;2022-09-27T06:30:12;20.10;58.30
49385;DHT22;36795;45.028;38.968;2022-09-27T06:33:01;20.30;58.10
49385;DHT22;36795;45.028;38.968;2022-09-27T06:35:48;20.40;57.70
49385;DHT22;36795;45.028;38.968;2022-09-27T06:38:36;20.70;57.40
49385;DHT22;36795;45.028;38.968;2022-09-27T06:41:23;21.30;56.40
49385;DHT22;36795;45.028;38.968;2022-09-27T06:44:13;22.40;54.20
49385;DHT22;36795;45.028;38.968;2022-09-27T06:47:02;22.90;52.40
49385;DHT22;36795;45.028;38.968;2022-09-27T06:49:48;22.90;52.10
49385;DHT22;36795;45.028;38.968;2022-09-27T06:52:47;22.50;52.20
49385;DHT22;36795;45.028;38.968;2022-09-27T06:55:35;22.20;52.60
49385;DHT22;36795;45.028;38.968;2022-09-27T06:58:20;22.20;52.80
49385;DHT22;36795;45.028;38.968;2022-09-27T07:01:30;22.80;51.40
49385;DHT22;36795;45.028;38.968;2022-09-27T07:04:18;23.60;49.60
49385;DHT22;36795;45.028;38.968;2022-09-27T07:07:06;23.90;48.90
49385;DHT22;36795;45.028;38.968;2022-09-27T07:09:52;23.60;48.80
49385;DHT22;36795;45.028;38.968;2022-09-27T07:12:44;23.30;49.20
49385;DHT22;36795;45.028;38.968;2022-09-27T07:15:35;23.10;49.00
49385;DHT22;36795;45.028;38.968;2022-09-27T07:18:27;23.60;48.10
49385;DHT22;36795;45.028;38.968;2022-09-27T07:21:13;25.20;45.50
49385;DHT22;36795;45.028;38.968;2022-09-27T07:24:01;26.30;43.50
49385;DHT22;36795;45.028;38.968;2022-09-27T07:26:47;26.80;42.30
49385;DHT22;36795;45.028;38.968;2022-09-27T07:29:35;27.80;40.10
49385;DHT22;36795;45.028;38.968;2022-09-27T07:32:20;28.80;38.80
49385;DHT22;36795;45.028;38.968;2022-09-27T07:35:08;28.90;38.10
49385;DHT22;36795;45.028;38.968;2022-09-27T07:37:55;28.60;38.10
49385;DHT22;36795;45.028;38.968;2022-09-27T07:40:42;28.70;38.10
49385;DHT22;36795;45.028;38.968;2022-09-27T07:43:28;29.20;37.90
49385;DHT22;36795;45.028;38.968;2022-09-27T07:46:15;28.90;38.00
49385;DHT22;36795;45.028;38.968;2022-09-27T07:49:01;28.20;37.90
49385;DHT22;36795;45.028;38.968;2022-09-27T07:51:47;27.50;38.60
49385;DHT22;36795;45.028;38.968;2022-09-27T07:54:33;27.10;38.70
49385;DHT22;36795;45.028;38.968;2022-09-27T07:57:21;27.10;39.00
49385;DHT22;36795;45.028;38.968;2022-09-27T08:00:11;27.50;38.80
49385;DHT22;36795;45.028;38.968;2022-09-27T08:03:02;27.90;38.50
49385;DHT22;36795;45.028;38.968;2022-09-27T08:05:49;27.80;38.90
49385;DHT22;36795;45.028;38.968;2022-09-27T08:08:35;27.20;39.80
49385;DHT22;36795;45.028;38.968;2022-09-27T08:11:22;26.60;40.90
49385;DHT22;36795;45.028;38.968;2022-09-27T08:14:09;26.10;42.00
49385;DHT22;36795;45.028;38.968;2022-09-27T08:16:57;25.60;42.70
49385;DHT22;36795;45.028;38.968;2022-09-27T08:19:45;25.40;43.30
49385;DHT22;36795;45.028;38.968;2022-09-27T08:22:38;25.30;43.70
49385;DHT22;36795;45.028;38.968;2022-09-27T08:25:26;25.20;44.00
49385;DHT22;36795;45.028;38.968;2022-09-27T08:28:15;25.40;43.90
49385;DHT22;36795;45.028;38.968;2022-09-27T08:31:02;25.70;43.50
49385;DHT22;36795;45.028;38.968;2022-09-27T08:34:03;25.90;43.80
49385;DHT22;36795;45.028;38.968;2022-09-27T08:37:02;26.00;42.30
49385;DHT22;36795;45.028;38.968;2022-09-27T08:39:52;25.70;42.30
49385;DHT22;36795;45.028;38.968;2022-09-27T08:45:32;25.10;42.40
49385;DHT22;36795;45.028;38.968;2022-09-27T08:48:20;25.00;42.00
49385;DHT22;36795;45.028;38.968;2022-09-27T08:51:12;24.90;42.20
49385;DHT22;36795;45.028;38.968;2022-09-27T08:54:11;25.00;41.90
49385;DHT22;36795;45.028;38.968;2022-09-27T08:57:04;25.40;41.70
49385;DHT22;36795;45.028;38.968;2022-09-27T09:00:10;25.70;41.00
49385;DHT22;36795;45.028;38.968;2022-09-27T09:03:00;26.20;40.80
49385;DHT22;36795;45.028;38.968;2022-09-27T09:06:02;26.80;40.20
49385;DHT22;36795;45.028;38.968;2022-09-27T09:12:07;28.20;38.50
49385;DHT22;36795;45.028;38.968;2022-09-27T09:25:16;29.00;38.00
49385;DHT22;36795;45.028;38.968;2022-09-27T09:31:41;29.30;37.80
49385;DHT22;36795;45.028;38.968;2022-09-27T09:35:14;29.20;37.90
49385;DHT22;36795;45.028;38.968;2022-09-27T09:38:02;28.80;38.40
49385;DHT22;36795;45.028;38.968;2022-09-27T09:40:59;28.10;39.30
49385;DHT22;36795;45.028;38.968;2022-09-27T09:44:02;27.60;40.00
49385;DHT22;36795;45.028;38.968;2022-09-27T09:46:54;27.40;40.50
49385;DHT22;36795;45.028;38.968;2022-09-27T09:49:46;27.20;40.80
49385;DHT22;36795;45.028;38.968;2022-09-27T09:52:41;27.30;41.00
49385;DHT22;36795;45.028;38.968;2022-09-27T09:55:32;27.30;41.10
49385;DHT22;36795;45.028;38.968;2022-09-27T09:58:30;27.10;41.30
49385;DHT22;36795;45.028;38.968;2022-09-27T10:01:25;27.10;41.40
49385;DHT22;36795;45.028;38.968;2022-09-27T10:04:28;27.10;41.60
49385;DHT22;36795;45.028;38.968;2022-09-27T10:07:17;27.10;41.80
49385;DHT22;36795;45.028;38.968;2022-09-27T10:10:07;28.10;41.10
49385;DHT22;36795;45.028;38.968;2022-09-27T10:13:02;29.50;39.60
49385;DHT22;36795;45.028;38.968;2022-09-27T10:16:00;31.20;37.70
49385;DHT22;36795;45.028;38.968;2022-09-27T10:18:51;33.10;35.70
49385;DHT22;36795;45.028;38.968;2022-09-27T10:21:44;34.30;34.10
49385;DHT22;36795;45.028;38.968;2022-09-27T10:24:52;34.00;34.00
49385;DHT22;36795;45.028;38.968;2022-09-27T10:27:45;32.50;35.30
49385;DHT22;36795;45.028;38.968;2022-09-27T10:30:34;30.70;37.40
49385;DHT22;36795;45.028;38.968;2022-09-27T10:33:20;29.50;39.10
49385;DHT22;36795;45.028;38.968;2022-09-27T10:36:26;28.60;40.40
49385;DHT22;36795;45.028;38.968;2022-09-27T10:39:23;27.90;41.30
49385;DHT22;36795;45.028;38.968;2022-09-27T10:42:37;27.40;42.00
49385;DHT22;36795;45.028;38.968;2022-09-27T10:45:27;27.30;42.60
49385;DHT22;36795;45.028;38.968;2022-09-27T10:48:20;27.40;42.80
49385;DHT22;36795;45.028;38.968;2022-09-27T10:51:30;27.80;42.70
49385;DHT22;36795;45.028;38.968;2022-09-27T10:54:25;28.40;42.00
49385;DHT22;36795;45.028;38.968;2022-09-27T10:57:18;29.40;40.50
49385;DHT22;36795;45.028;38.968;2022-09-27T11:00:19;29.90;39.50
49385;DHT22;36795;45.028;38.968;2022-09-27T11:03:14;29.70;39.80
49385;DHT22;36795;45.028;38.968;2022-09-27T11:06:19;29.50;40.10
49385;DHT22;36795;45.028;38.968;2022-09-27T11:09:24;29.40;39.90
49385;DHT22;36795;45.028;38.968;2022-09-27T11:12:12;29.30;40.20
49385;DHT22;36795;45.028;38.968;2022-09-27T11:15:05;29.20;40.00
49385;DHT22;36795;45.028;38.968;2022-09-27T11:18:00;29.10;39.20
49385;DHT22;36795;45.028;38.968;2022-09-27T11:21:15;28.90;39.20
49385;DHT22;36795;45.028;38.968;2022-09-27T11:30:23;28.70;39.90
49385;DHT22;36795;45.028;38.968;2022-09-27T11:52:10;27.50;43.50
49385;DHT22;36795;45.028;38.968;2022-09-27T11:58:29;27.00;44.80
49385;DHT22;36795;45.028;38.968;2022-09-27T12:04:56;26.70;46.10
49385;DHT22;36795;45.028;38.968;2022-09-27T12:10:57;26.50;47.20
49385;DHT22;36795;45.028;38.968;2022-09-27T12:13:52;26.70;47.10
49385;DHT22;36795;45.028;38.968;2022-09-27T12:16:41;27.20;46.60
49385;DHT22;36795;45.028;38.968;2022-09-27T12:19:34;28.40;44.80
49385;DHT22;36795;45.028;38.968;2022-09-27T12:23:00;29.10;43.70
49385;DHT22;36795;45.028;38.968;2022-09-27T12:25:54;29.50;43.10
49385;DHT22;36795;45.028;38.968;2022-09-27T12:32:03;29.50;42.60
49385;DHT22;36795;45.028;38.968;2022-09-27T12:38:08;29.40;41.80
49385;DHT22;36795;45.028;38.968;2022-09-27T12:40:57;29.00;42.00
49385;DHT22;36795;45.028;38.968;2022-09-27T12:43:47;28.70;42.30
49385;DHT22;36795;45.028;38.968;2022-09-27T12:49:52;29.70;41.00
49385;DHT22;36795;45.028;38.968;2022-09-27T12:52:44;29.90;40.60
49385;DHT22;36795;45.028;38.968;2022-09-27T12:55:41;29.60;40.90
49385;DHT22;36795;45.028;38.968;2022-09-27T12:58:32;28.90;41.70
49385;DHT22;36795;45.028;38.968;2022-09-27T13:08:21;27.10;44.30
49385;DHT22;36795;45.028;38.968;2022-09-27T13:11:39;27.00;44.70
49385;DHT22;36795;45.028;38.968;2022-09-27T13:14:33;26.80;45.20
49385;DHT22;36795;45.028;38.968;2022-09-27T13:26:42;26.50;45.90
49385;DHT22;36795;45.028;38.968;2022-09-27T13:29:32;26.40;45.70
49385;DHT22;36795;45.028;38.968;2022-09-27T13:32:23;26.30;45.90
49385;DHT22;36795;45.028;38.968;2022-09-27T13:38:03;26.20;46.00
49385;DHT22;36795;45.028;38.968;2022-09-27T13:40:52;26.10;46.00
49385;DHT22;36795;45.028;38.968;2022-09-27T13:43:47;26.00;46.10
49385;DHT22;36795;45.028;38.968;2022-09-27T13:47:22;26.00;46.30
49385;DHT22;36795;45.028;38.968;2022-09-27T13:50:11;25.90;46.30
49385;DHT22;36795;45.028;38.968;2022-09-27T13:53:54;25.80;46.60
49385;DHT22;36795;45.028;38.968;2022-09-27T13:59:42;25.70;47.10
49385;DHT22;36795;45.028;38.968;2022-09-27T14:05:59;25.60;47.50
49385;DHT22;36795;45.028;38.968;2022-09-27T14:08:48;25.50;47.80
49385;DHT22;36795;45.028;38.968;2022-09-27T14:11:39;25.40;48.00
49385;DHT22;36795;45.028;38.968;2022-09-27T14:14:28;25.30;48.30
49385;DHT22;36795;45.028;38.968;2022-09-27T14:17:16;25.30;49.00
49385;DHT22;36795;45.028;38.968;2022-09-27T14:20:03;25.20;49.30
49385;DHT22;36795;45.028;38.968;2022-09-27T14:22:54;25.10;49.80
49385;DHT22;36795;45.028;38.968;2022-09-27T14:25:46;25.00;50.30
49385;DHT22;36795;45.028;38.968;2022-09-27T14:28:40;24.80;50.90
49385;DHT22;36795;45.028;38.968;2022-09-27T14:31:28;24.70;51.30
49385;DHT22;36795;45.028;38.968;2022-09-27T14:34:16;24.60;51.60
49385;DHT22;36795;45.028;38.968;2022-09-27T14:37:03;24.60;51.60
49385;DHT22;36795;45.028;38.968;2022-09-27T14:40:19;24.50;51.00
49385;DHT22;36795;45.028;38.968;2022-09-27T14:43:09;24.50;51.00
49385;DHT22;36795;45.028;38.968;2022-09-27T14:46:04;24.50;51.20
49385;DHT22;36795;45.028;38.968;2022-09-27T14:48:53;24.50;51.40
49385;DHT22;36795;45.028;38.968;2022-09-27T14:51:40;24.40;51.60
49385;DHT22;36795;45.028;38.968;2022-09-27T14:54:28;24.30;51.60
49385;DHT22;36795;45.028;38.968;2022-09-27T14:57:16;24.20;51.50
49385;DHT22;36795;45.028;38.968;2022-09-27T15:00:30;24.20;51.40
49385;DHT22;36795;45.028;38.968;2022-09-27T15:03:29;24.20;51.10
49385;DHT22;36795;45.028;38.968;2022-09-27T15:06:16;24.10;51.00
49385;DHT22;36795;45.028;38.968;2022-09-27T15:09:06;24.10;51.10
49385;DHT22;36795;45.028;38.968;2022-09-27T15:11:58;24.00;51.20
49385;DHT22;36795;45.028;38.968;2022-09-27T15:14:46;23.90;51.10
49385;DHT22;36795;45.028;38.968;2022-09-27T15:17:41;23.90;51.10
49385;DHT22;36795;45.028;38.968;2022-09-27T15:20:35;23.80;50.70
49385;DHT22;36795;45.028;38.968;2022-09-27T15:23:27;23.70;50.50
49385;DHT22;36795;45.028;38.968;2022-09-27T15:26:23;23.70;50.40
49385;DHT22;36795;45.028;38.968;2022-09-27T15:29:21;23.60;50.40
49385;DHT22;36795;45.028;38.968;2022-09-27T15:32:14;23.60;50.50
49385;DHT22;36795;45.028;38.968;2022-09-27T15:35:07;23.50;50.80
49385;DHT22;36795;45.028;38.968;2022-09-27T15:41:16;23.40;51.20
49385;DHT22;36795;45.028;38.968;2022-09-27T15:44:33;23.30;50.50
49385;DHT22;36795;45.028;38.968;2022-09-27T15:53:13;23.20;51.00
49385;DHT22;36795;45.028;38.968;2022-09-27T15:56:18;23.20;51.20
49385;DHT22;36795;45.028;38.968;2022-09-27T15:59:05;23.10;51.40
49385;DHT22;36795;45.028;38.968;2022-09-27T16:01:57;23.10;51.90
49385;DHT22;36795;45.028;38.968;2022-09-27T16:04:44;23.10;51.90
49385;DHT22;36795;45.028;38.968;2022-09-27T16:07:30;23.10;51.90
49385;DHT22;36795;45.028;38.968;2022-09-27T16:10:21;23.00;51.80
49385;DHT22;36795;45.028;38.968;2022-09-27T16:13:08;23.00;52.00
49385;DHT22;36795;45.028;38.968;2022-09-27T16:15:54;23.00;52.10
49385;DHT22;36795;45.028;38.968;2022-09-27T16:18:41;22.90;52.00
49385;DHT22;36795;45.028;38.968;2022-09-27T16:21:27;22.90;51.90
49385;DHT22;36795;45.028;38.968;2022-09-27T16:24:13;22.90;51.70
49385;DHT22;36795;45.028;38.968;2022-09-27T16:27:00;22.90;51.70
49385;DHT22;36795;45.028;38.968;2022-09-27T16:29:47;22.90;51.60
49385;DHT22;36795;45.028;38.968;2022-09-27T16:32:33;22.90;51.40
49385;DHT22;36795;45.028;38.968;2022-09-27T16:35:22;22.90;51.30
49385;DHT22;36795;45.028;38.968;2022-09-27T16:38:08;22.90;51.40
49385;DHT22;36795;45.028;38.968;2022-09-27T16:41:03;22.90;51.60
49385;DHT22;36795;45.028;38.968;2022-09-27T16:43:49;22.90;51.80
49385;DHT22;36795;45.028;38.968;2022-09-27T16:46:38;22.80;52.00
49385;DHT22;36795;45.028;38.968;2022-09-27T16:49:24;22.80;52.30
49385;DHT22;36795;45.028;38.968;2022-09-27T16:52:30;22.60;52.50
49385;DHT22;36795;45.028;38.968;2022-09-27T16:55:20;22.60;52.80
49385;DHT22;36795;45.028;38.968;2022-09-27T16:58:07;22.60;52.80
49385;DHT22;36795;45.028;38.968;2022-09-27T17:00:57;22.50;53.20
49385;DHT22;36795;45.028;38.968;2022-09-27T17:03:48;22.50;53.40
49385;DHT22;36795;45.028;38.968;2022-09-27T17:06:37;22.50;53.50
49385;DHT22;36795;45.028;38.968;2022-09-27T17:09:27;22.50;53.60
49385;DHT22;36795;45.028;38.968;2022-09-27T17:12:14;22.40;53.40
49385;DHT22;36795;45.028;38.968;2022-09-27T17:15:00;22.40;53.00
49385;DHT22;36795;45.028;38.968;2022-09-27T17:17:50;22.40;52.70
49385;DHT22;36795;45.028;38.968;2022-09-27T17:20:35;22.40;52.70
49385;DHT22;36795;45.028;38.968;2022-09-27T17:23:22;22.30;52.90
49385;DHT22;36795;45.028;38.968;2022-09-27T17:26:16;22.30;52.80
49385;DHT22;36795;45.028;38.968;2022-09-27T17:29:03;22.20;52.90
49385;DHT22;36795;45.028;38.968;2022-09-27T17:31:50;22.20;53.00
49385;DHT22;36795;45.028;38.968;2022-09-27T17:35:04;22.10;53.00
49385;DHT22;36795;45.028;38.968;2022-09-27T17:37:52;22.10;52.70
49385;DHT22;36795;45.028;38.968;2022-09-27T17:40:38;22.10;52.60
49385;DHT22;36795;45.028;38.968;2022-09-27T17:43:24;22.10;52.60
49385;DHT22;36795;45.028;38.968;2022-09-27T17:46:10;22.10;52.60
49385;DHT22;36795;45.028;38.968;2022-09-27T17:48:57;22.00;53.00
49385;DHT22;36795;45.028;38.968;2022-09-27T17:52:02;22.00;51.80
49385;DHT22;36795;45.028;38.968;2022-09-27T17:54:49;22.00;51.20
49385;DHT22;36795;45.028;38.968;2022-09-27T17:57:37;22.10;50.60
49385;DHT22;36795;45.028;38.968;2022-09-27T18:00:26;22.10;50.20
49385;DHT22;36795;45.028;38.968;2022-09-27T18:03:13;22.10;49.80
49385;DHT22;36795;45.028;38.968;2022-09-27T18:06:06;22.10;49.90
49385;DHT22;36795;45.028;38.968;2022-09-27T18:08:54;22.00;50.10
49385;DHT22;36795;45.028;38.968;2022-09-27T18:11:41;22.00;50.00
49385;DHT22;36795;45.028;38.968;2022-09-27T18:14:28;22.00;49.80
49385;DHT22;36795;45.028;38.968;2022-09-27T18:17:15;22.00;49.70
49385;DHT22;36795;45.028;38.968;2022-09-27T18:20:04;22.00;49.70
49385;DHT22;36795;45.028;38.968;2022-09-27T18:22:49;21.90;49.50
49385;DHT22;36795;45.028;38.968;2022-09-27T18:25:36;21.90;49.70
49385;DHT22;36795;45.028;38.968;2022-09-27T18:28:26;21.90;49.70
49385;DHT22;36795;45.028;38.968;2022-09-27T18:31:15;21.80;49.50
49385;DHT22;36795;45.028;38.968;2022-09-27T18:34:01;21.80;49.30
49385;DHT22;36795;45.028;38.968;2022-09-27T18:36:49;21.80;49.10
49385;DHT22;36795;45.028;38.968;2022-09-27T18:39:48;21.80;49.10
49385;DHT22;36795;45.028;38.968;2022-09-27T18:42:49;21.80;49.20
49385;DHT22;36795;45.028;38.968;2022-09-27T18:45:36;21.70;49.30
49385;DHT22;36795;45.028;38.968;2022-09-27T18:48:23;21.70;49.40
49385;DHT22;36795;45.028;38.968;2022-09-27T18:51:20;21.70;49.30
49385;DHT22;36795;45.028;38.968;2022-09-27T18:54:17;21.70;49.30
49385;DHT22;36795;45.028;38.968;2022-09-27T18:57:04;21.60;49.20
49385;DHT22;36795;45.028;38.968;2022-09-27T18:59:50;21.60;49.30
49385;DHT22;36795;45.028;38.968;2022-09-27T19:02:36;21.50;49.50
49385;DHT22;36795;45.028;38.968;2022-09-27T19:05:23;21.50;49.70
49385;DHT22;36795;45.028;38.968;2022-09-27T19:08:09;21.50;50.00
49385;DHT22;36795;45.028;38.968;2022-09-27T19:11:04;21.40;50.20
49385;DHT22;36795;45.028;38.968;2022-09-27T19:13:52;21.40;50.40
49385;DHT22;36795;45.028;38.968;2022-09-27T19:16:39;21.40;50.70
49385;DHT22;36795;45.028;38.968;2022-09-27T19:19:27;21.30;50.40
49385;DHT22;36795;45.028;38.968;2022-09-27T19:22:14;21.30;50.30
49385;DHT22;36795;45.028;38.968;2022-09-27T19:24:59;21.20;50.20
49385;DHT22;36795;45.028;38.968;2022-09-27T19:27:46;21.20;50.60
49385;DHT22;36795;45.028;38.968;2022-09-27T19:30:32;21.20;50.90
49385;DHT22;36795;45.028;38.968;2022-09-27T19:33:19;21.10;50.90
49385;DHT22;36795;45.028;38.968;2022-09-27T19:36:09;21.10;51.20
49385;DHT22;36795;45.028;38.968;2022-09-27T19:38:55;21.00;51.40
49385;DHT22;36795;45.028;38.968;2022-09-27T19:41:42;21.00;51.60
49385;DHT22;36795;45.028;38.968;2022-09-27T19:44:33;21.00;51.70
49385;DHT22;36795;45.028;38.968;2022-09-27T19:47:22;20.90;51.60
49385;DHT22;36795;45.028;38.968;2022-09-27T19:50:15;21.00;51.60
49385;DHT22;36795;45.028;38.968;2022-09-27T19:53:02;21.00;51.50
49385;DHT22;36795;45.028;38.968;2022-09-27T19:55:56;21.00;51.40
49385;DHT22;36795;45.028;38.968;2022-09-27T19:58:42;21.00;51.60
49385;DHT22;36795;45.028;38.968;2022-09-27T20:01:28;21.00;51.70
49385;DHT22;36795;45.028;38.968;2022-09-27T20:04:16;20.90;52.00